sensor_id;sensor_type;location;lat;lon;timestamp;temperature;humidity
79140;HTU21D;68546;59.142;37.948;2023-04-29T00:01:49;7.77;70.39
79140;HTU21D;68546;59.142;37.948;2023-04-29T00:04:15;7.74;70.40
79140;HTU21D;68546;59.142;37.948;2023-04-29T00:06:42;7.71;70.51
79140;HTU21D;68546;59.142;37.948;2023-04-29T00:09:08;7.68;70.72
79140;HTU21D;68546;59.142;37.948;2023-04-29T00:11:34;7.64;70.86
79140;HTU21D;68546;59.142;37.948;2023-04-29T00:14:01;7.63;70.90
79140;HTU21D;68546;59.142;37.948;2023-04-29T00:16:27;7.61;70.82
79140;HTU21D;68546;59.142;37.948;2023-04-29T00:18:58;7.59;70.87
79140;HTU21D;68546;59.142;37.948;2023-04-29T00:21:25;7.57;70.85
79140;HTU21D;68546;59.142;37.948;2023-04-29T00:23:53;7.55;70.83
79140;HTU21D;68546;59.142;37.948;2023-04-29T00:26:20;7.52;70.81
79140;HTU21D;68546;59.142;37.948;2023-04-29T00:28:47;7.48;70.97
79140;HTU21D;68546;59.142;37.948;2023-04-29T00:31:14;7.46;71.20
79140;HTU21D;68546;59.142;37.948;2023-04-29T00:33:40;7.45;71.13
79140;HTU21D;68546;59.142;37.948;2023-04-29T00:36:07;7.43;71.22
79140;HTU21D;68546;59.142;37.948;2023-04-29T00:38:34;7.42;71.19
79140;HTU21D;68546;59.142;37.948;2023-04-29T00:41:01;7.39;71.21
79140;HTU21D;68546;59.142;37.948;2023-04-29T00:43:28;7.37;71.23
79140;HTU21D;68546;59.142;37.948;2023-04-29T00:45:54;7.34;71.32
79140;HTU21D;68546;59.142;37.948;2023-04-29T00:48:21;7.32;71.34
79140;HTU21D;68546;59.142;37.948;2023-04-29T00:50:47;7.29;71.42
79140;HTU21D;68546;59.142;37.948;2023-04-29T00:53:13;7.26;71.44
79140;HTU21D;68546;59.142;37.948;2023-04-29T00:55:40;7.22;71.48
79140;HTU21D;68546;59.142;37.948;2023-04-29T00:58:09;7.19;71.60
79140;HTU21D;68546;59.142;37.948;2023-04-29T01:00:37;7.15;71.71
79140;HTU21D;68546;59.142;37.948;2023-04-29T01:03:04;7.11;71.87
79140;HTU21D;68546;59.142;37.948;2023-04-29T01:05:30;7.08;72.06
79140;HTU21D;68546;59.142;37.948;2023-04-29T01:08:28;7.05;72.18
79140;HTU21D;68546;59.142;37.948;2023-04-29T01:11:09;7.02;72.14
79140;HTU21D;68546;59.142;37.948;2023-04-29T01:13:48;6.98;72.24
79140;HTU21D;68546;59.142;37.948;2023-04-29T01:16:24;6.95;72.24
79140;HTU21D;68546;59.142;37.948;2023-04-29T01:18:57;6.90;72.39
79140;HTU21D;68546;59.142;37.948;2023-04-29T01:21:28;6.85;72.59
79140;HTU21D;68546;59.142;37.948;2023-04-29T01:23:57;6.81;72.79
79140;HTU21D;68546;59.142;37.948;2023-04-29T01:26:28;6.76;73.07
79140;HTU21D;68546;59.142;37.948;2023-04-29T01:32:05;6.66;73.25
79140;HTU21D;68546;59.142;37.948;2023-04-29T01:34:50;6.64;73.48
79140;HTU21D;68546;59.142;37.948;2023-04-29T01:37:34;6.58;73.58
79140;HTU21D;68546;59.142;37.948;2023-04-29T01:40:05;6.53;73.82
79140;HTU21D;68546;59.142;37.948;2023-04-29T01:42:51;6.46;73.93
79140;HTU21D;68546;59.142;37.948;2023-04-29T01:45:21;6.41;74.27
79140;HTU21D;68546;59.142;37.948;2023-04-29T01:47:50;6.39;74.57
79140;HTU21D;68546;59.142;37.948;2023-04-29T01:50:18;6.38;74.77
79140;HTU21D;68546;59.142;37.948;2023-04-29T01:52:46;6.36;74.97
79140;HTU21D;68546;59.142;37.948;2023-04-29T01:55:12;6.37;75.20
79140;HTU21D;68546;59.142;37.948;2023-04-29T01:57:50;6.37;75.38
79140;HTU21D;68546;59.142;37.948;2023-04-29T02:00:35;6.36;75.28
79140;HTU21D;68546;59.142;37.948;2023-04-29T02:03:03;6.33;75.27
79140;HTU21D;68546;59.142;37.948;2023-04-29T02:05:37;6.30;75.41
79140;HTU21D;68546;59.142;37.948;2023-04-29T02:08:05;6.29;75.58
79140;HTU21D;68546;59.142;37.948;2023-04-29T02:10:36;6.29;75.60
79140;HTU21D;68546;59.142;37.948;2023-04-29T02:13:20;6.26;75.69
79140;HTU21D;68546;59.142;37.948;2023-04-29T02:15:47;6.25;75.91
79140;HTU21D;68546;59.142;37.948;2023-04-29T02:18:14;6.23;76.10
79140;HTU21D;68546;59.142;37.948;2023-04-29T02:20:41;6.19;76.30
79140;HTU21D;68546;59.142;37.948;2023-04-29T02:23:08;6.16;76.41
79140;HTU21D;68546;59.142;37.948;2023-04-29T02:25:35;6.14;76.60
79140;HTU21D;68546;59.142;37.948;2023-04-29T02:28:02;6.10;76.59
79140;HTU21D;68546;59.142;37.948;2023-04-29T02:30:28;6.09;76.82
79140;HTU21D;68546;59.142;37.948;2023-04-29T02:32:55;6.04;76.79
79140;HTU21D;68546;59.142;37.948;2023-04-29T02:35:21;6.00;77.04
79140;HTU21D;68546;59.142;37.948;2023-04-29T02:37:47;5.99;77.26
79140;HTU21D;68546;59.142;37.948;2023-04-29T02:40:14;5.97;77.45
79140;HTU21D;68546;59.142;37.948;2023-04-29T02:42:40;5.94;77.63
79140;HTU21D;68546;59.142;37.948;2023-04-29T02:45:07;5.93;77.90
79140;HTU21D;68546;59.142;37.948;2023-04-29T02:47:35;5.91;77.90
79140;HTU21D;68546;59.142;37.948;2023-04-29T02:50:02;5.92;78.08
79140;HTU21D;68546;59.142;37.948;2023-04-29T02:52:31;5.87;78.25
79140;HTU21D;68546;59.142;37.948;2023-04-29T02:54:57;5.86;78.56
79140;HTU21D;68546;59.142;37.948;2023-04-29T02:57:23;5.86;78.85
79140;HTU21D;68546;59.142;37.948;2023-04-29T02:59:50;5.85;79.19
79140;HTU21D;68546;59.142;37.948;2023-04-29T03:02:16;5.87;79.59
79140;HTU21D;68546;59.142;37.948;2023-04-29T03:04:45;5.89;79.65
79140;HTU21D;68546;59.142;37.948;2023-04-29T03:07:12;5.90;79.88
79140;HTU21D;68546;59.142;37.948;2023-04-29T03:09:38;5.93;79.98
79140;HTU21D;68546;59.142;37.948;2023-04-29T03:12:07;5.95;80.17
79140;HTU21D;68546;59.142;37.948;2023-04-29T03:14:34;5.98;80.62
79140;HTU21D;68546;59.142;37.948;2023-04-29T03:17:01;5.98;80.40
79140;HTU21D;68546;59.142;37.948;2023-04-29T03:19:30;6.00;80.24
79140;HTU21D;68546;59.142;37.948;2023-04-29T03:21:57;6.00;80.36
79140;HTU21D;68546;59.142;37.948;2023-04-29T03:24:23;6.00;80.43
79140;HTU21D;68546;59.142;37.948;2023-04-29T03:26:49;6.01;80.43
79140;HTU21D;68546;59.142;37.948;2023-04-29T03:29:19;6.00;80.40
79140;HTU21D;68546;59.142;37.948;2023-04-29T03:31:45;6.01;80.51
79140;HTU21D;68546;59.142;37.948;2023-04-29T03:34:12;6.01;80.74
79140;HTU21D;68546;59.142;37.948;2023-04-29T03:36:45;6.04;81.13
79140;HTU21D;68546;59.142;37.948;2023-04-29T03:39:11;6.07;81.04
79140;HTU21D;68546;59.142;37.948;2023-04-29T03:41:37;6.08;81.04
79140;HTU21D;68546;59.142;37.948;2023-04-29T03:44:04;6.11;81.43
79140;HTU21D;68546;59.142;37.948;2023-04-29T03:46:30;6.16;81.71
79140;HTU21D;68546;59.142;37.948;2023-04-29T03:48:57;6.17;81.49
79140;HTU21D;68546;59.142;37.948;2023-04-29T03:51:24;6.22;81.55
79140;HTU21D;68546;59.142;37.948;2023-04-29T03:53:54;6.27;81.52
79140;HTU21D;68546;59.142;37.948;2023-04-29T03:56:25;6.29;81.26
79140;HTU21D;68546;59.142;37.948;2023-04-29T03:58:52;6.30;81.04
79140;HTU21D;68546;59.142;37.948;2023-04-29T04:01:20;6.30;81.15
79140;HTU21D;68546;59.142;37.948;2023-04-29T04:03:47;6.33;80.97
79140;HTU21D;68546;59.142;37.948;2023-04-29T04:06:13;6.34;80.90
79140;HTU21D;68546;59.142;37.948;2023-04-29T04:08:40;6.37;80.86
79140;HTU21D;68546;59.142;37.948;2023-04-29T04:11:32;6.36;80.56
79140;HTU21D;68546;59.142;37.948;2023-04-29T04:14:02;6.36;80.49
79140;HTU21D;68546;59.142;37.948;2023-04-29T04:19:43;6.34;80.51
79140;HTU21D;68546;59.142;37.948;2023-04-29T04:22:10;6.36;80.72
79140;HTU21D;68546;59.142;37.948;2023-04-29T04:24:39;6.38;81.11
79140;HTU21D;68546;59.142;37.948;2023-04-29T04:27:05;6.39;81.21
79140;HTU21D;68546;59.142;37.948;2023-04-29T04:29:36;6.41;81.21
79140;HTU21D;68546;59.142;37.948;2023-04-29T04:32:09;6.43;81.03
79140;HTU21D;68546;59.142;37.948;2023-04-29T04:34:38;6.43;80.70
79140;HTU21D;68546;59.142;37.948;2023-04-29T04:37:08;6.42;80.54
79140;HTU21D;68546;59.142;37.948;2023-04-29T04:39:35;6.44;80.71
79140;HTU21D;68546;59.142;37.948;2023-04-29T04:42:01;6.44;80.34
79140;HTU21D;68546;59.142;37.948;2023-04-29T04:44:30;6.44;80.15
79140;HTU21D;68546;59.142;37.948;2023-04-29T04:47:03;6.44;80.52
79140;HTU21D;68546;59.142;37.948;2023-04-29T04:50:00;6.45;79.98
79140;HTU21D;68546;59.142;37.948;2023-04-29T04:52:27;6.44;79.91
79140;HTU21D;68546;59.142;37.948;2023-04-29T04:55:03;6.45;80.05
79140;HTU21D;68546;59.142;37.948;2023-04-29T04:57:34;6.46;80.30
79140;HTU21D;68546;59.142;37.948;2023-04-29T05:00:00;6.46;80.23
79140;HTU21D;68546;59.142;37.948;2023-04-29T05:02:27;6.49;80.22
79140;HTU21D;68546;59.142;37.948;2023-04-29T05:04:53;6.50;79.74
79140;HTU21D;68546;59.142;37.948;2023-04-29T05:07:24;6.52;80.17
79140;HTU21D;68546;59.142;37.948;2023-04-29T05:10:14;6.54;80.33
79140;HTU21D;68546;59.142;37.948;2023-04-29T05:12:46;6.57;79.94
79140;HTU21D;68546;59.142;37.948;2023-04-29T05:15:13;6.59;79.96
79140;HTU21D;68546;59.142;37.948;2023-04-29T05:17:43;6.63;80.29
79140;HTU21D;68546;59.142;37.948;2023-04-29T05:20:10;6.66;80.59
79140;HTU21D;68546;59.142;37.948;2023-04-29T05:22:36;6.70;80.87
79140;HTU21D;68546;59.142;37.948;2023-04-29T05:25:03;6.74;80.47
79140;HTU21D;68546;59.142;37.948;2023-04-29T05:27:32;6.78;79.94
79140;HTU21D;68546;59.142;37.948;2023-04-29T05:29:58;6.81;79.49
79140;HTU21D;68546;59.142;37.948;2023-04-29T05:32:24;6.81;78.92
79140;HTU21D;68546;59.142;37.948;2023-04-29T05:34:51;6.81;79.17
79140;HTU21D;68546;59.142;37.948;2023-04-29T05:37:17;6.84;79.73
79140;HTU21D;68546;59.142;37.948;2023-04-29T05:39:59;6.90;80.19
79140;HTU21D;68546;59.142;37.948;2023-04-29T05:42:26;6.94;79.88
79140;HTU21D;68546;59.142;37.948;2023-04-29T05:44:52;6.99;80.17
79140;HTU21D;68546;59.142;37.948;2023-04-29T05:47:19;7.03;79.63
79140;HTU21D;68546;59.142;37.948;2023-04-29T05:49:45;7.09;79.27
79140;HTU21D;68546;59.142;37.948;2023-04-29T05:52:12;7.13;79.77
79140;HTU21D;68546;59.142;37.948;2023-04-29T05:54:43;7.19;80.29
79140;HTU21D;68546;59.142;37.948;2023-04-29T05:57:10;7.27;80.53
79140;HTU21D;68546;59.142;37.948;2023-04-29T05:59:36;7.34;80.49
79140;HTU21D;68546;59.142;37.948;2023-04-29T06:02:05;7.40;80.44
79140;HTU21D;68546;59.142;37.948;2023-04-29T06:04:33;7.48;80.51
79140;HTU21D;68546;59.142;37.948;2023-04-29T06:07:12;7.54;80.36
79140;HTU21D;68546;59.142;37.948;2023-04-29T06:09:50;7.62;80.24
79140;HTU21D;68546;59.142;37.948;2023-04-29T06:12:17;7.68;80.09
79140;HTU21D;68546;59.142;37.948;2023-04-29T06:14:45;7.71;80.07
79140;HTU21D;68546;59.142;37.948;2023-04-29T06:17:12;7.79;80.21
79140;HTU21D;68546;59.142;37.948;2023-04-29T06:19:41;7.85;79.46
79140;HTU21D;68546;59.142;37.948;2023-04-29T06:22:09;7.91;79.28
79140;HTU21D;68546;59.142;37.948;2023-04-29T06:24:38;7.98;79.65
79140;HTU21D;68546;59.142;37.948;2023-04-29T06:27:05;8.07;80.00
79140;HTU21D;68546;59.142;37.948;2023-04-29T06:29:32;8.16;79.85
79140;HTU21D;68546;59.142;37.948;2023-04-29T06:31:58;8.24;78.92
79140;HTU21D;68546;59.142;37.948;2023-04-29T06:34:30;8.30;78.25
79140;HTU21D;68546;59.142;37.948;2023-04-29T06:37:17;8.37;77.93
79140;HTU21D;68546;59.142;37.948;2023-04-29T06:40:07;8.45;77.11
79140;HTU21D;68546;59.142;37.948;2023-04-29T06:42:52;8.48;76.86
79140;HTU21D;68546;59.142;37.948;2023-04-29T06:45:50;8.56;77.24
79140;HTU21D;68546;59.142;37.948;2023-04-29T06:48:21;8.65;77.95
79140;HTU21D;68546;59.142;37.948;2023-04-29T06:50:50;8.72;77.12
79140;HTU21D;68546;59.142;37.948;2023-04-29T06:53:17;8.77;76.14
79140;HTU21D;68546;59.142;37.948;2023-04-29T06:55:44;8.80;75.57
79140;HTU21D;68546;59.142;37.948;2023-04-29T06:58:15;8.85;75.52
79140;HTU21D;68546;59.142;37.948;2023-04-29T07:00:45;8.90;75.92
79140;HTU21D;68546;59.142;37.948;2023-04-29T07:03:12;8.98;76.12
79140;HTU21D;68546;59.142;37.948;2023-04-29T07:05:39;9.07;76.04
79140;HTU21D;68546;59.142;37.948;2023-04-29T07:08:08;9.18;76.11
79140;HTU21D;68546;59.142;37.948;2023-04-29T07:10:35;9.24;74.85
79140;HTU21D;68546;59.142;37.948;2023-04-29T07:13:01;9.33;75.15
79140;HTU21D;68546;59.142;37.948;2023-04-29T07:15:29;9.41;74.65
79140;HTU21D;68546;59.142;37.948;2023-04-29T07:17:55;9.50;74.99
79140;HTU21D;68546;59.142;37.948;2023-04-29T07:20:23;9.57;74.77
79140;HTU21D;68546;59.142;37.948;2023-04-29T07:22:51;9.67;74.02
79140;HTU21D;68546;59.142;37.948;2023-04-29T07:25:17;9.74;73.95
79140;HTU21D;68546;59.142;37.948;2023-04-29T07:27:43;9.81;73.94
79140;HTU21D;68546;59.142;37.948;2023-04-29T07:30:10;9.88;72.38
79140;HTU21D;68546;59.142;37.948;2023-04-29T07:32:36;9.89;71.39
79140;HTU21D;68546;59.142;37.948;2023-04-29T07:35:04;9.86;70.15
79140;HTU21D;68546;59.142;37.948;2023-04-29T07:37:31;9.84;69.56
79140;HTU21D;68546;59.142;37.948;2023-04-29T07:39:58;9.82;69.64
79140;HTU21D;68546;59.142;37.948;2023-04-29T07:42:25;9.80;69.88
79140;HTU21D;68546;59.142;37.948;2023-04-29T07:44:51;9.79;70.50
79140;HTU21D;68546;59.142;37.948;2023-04-29T07:47:18;9.84;70.94
79140;HTU21D;68546;59.142;37.948;2023-04-29T07:49:45;9.89;71.12
79140;HTU21D;68546;59.142;37.948;2023-04-29T07:52:13;9.93;70.92
79140;HTU21D;68546;59.142;37.948;2023-04-29T07:54:40;9.95;70.90
79140;HTU21D;68546;59.142;37.948;2023-04-29T07:57:07;10.00;71.13
79140;HTU21D;68546;59.142;37.948;2023-04-29T07:59:33;10.04;71.20
79140;HTU21D;68546;59.142;37.948;2023-04-29T08:02:02;10.10;71.26
79140;HTU21D;68546;59.142;37.948;2023-04-29T08:04:28;10.16;71.48
79140;HTU21D;68546;59.142;37.948;2023-04-29T08:06:59;10.27;71.73
79140;HTU21D;68546;59.142;37.948;2023-04-29T08:09:28;10.39;72.09
79140;HTU21D;68546;59.142;37.948;2023-04-29T08:11:58;10.54;72.20
79140;HTU21D;68546;59.142;37.948;2023-04-29T08:14:25;10.69;72.25
79140;HTU21D;68546;59.142;37.948;2023-04-29T08:16:54;10.85;71.70
79140;HTU21D;68546;59.142;37.948;2023-04-29T08:19:21;10.97;71.36
79140;HTU21D;68546;59.142;37.948;2023-04-29T08:21:48;11.09;69.66
79140;HTU21D;68546;59.142;37.948;2023-04-29T08:24:14;11.15;69.65
79140;HTU21D;68546;59.142;37.948;2023-04-29T08:26:42;11.25;69.41
79140;HTU21D;68546;59.142;37.948;2023-04-29T08:29:09;11.36;68.73
79140;HTU21D;68546;59.142;37.948;2023-04-29T08:31:36;11.45;68.57
79140;HTU21D;68546;59.142;37.948;2023-04-29T08:34:02;11.53;68.44
79140;HTU21D;68546;59.142;37.948;2023-04-29T08:36:29;11.62;68.57
79140;HTU21D;68546;59.142;37.948;2023-04-29T08:38:55;11.72;68.54
79140;HTU21D;68546;59.142;37.948;2023-04-29T08:41:22;11.83;68.62
79140;HTU21D;68546;59.142;37.948;2023-04-29T08:43:48;11.96;68.50
79140;HTU21D;68546;59.142;37.948;2023-04-29T08:46:16;12.08;68.51
79140;HTU21D;68546;59.142;37.948;2023-04-29T08:48:43;12.22;68.33
79140;HTU21D;68546;59.142;37.948;2023-04-29T08:51:11;12.35;68.02
79140;HTU21D;68546;59.142;37.948;2023-04-29T08:53:41;12.47;67.62
79140;HTU21D;68546;59.142;37.948;2023-04-29T08:56:15;12.56;67.04
79140;HTU21D;68546;59.142;37.948;2023-04-29T08:58:47;12.59;66.54
79140;HTU21D;68546;59.142;37.948;2023-04-29T09:01:17;12.64;66.17
79140;HTU21D;68546;59.142;37.948;2023-04-29T09:06:22;12.73;65.75
79140;HTU21D;68546;59.142;37.948;2023-04-29T09:08:48;12.79;65.53
79140;HTU21D;68546;59.142;37.948;2023-04-29T09:11:15;12.88;65.42
79140;HTU21D;68546;59.142;37.948;2023-04-29T09:13:42;12.96;65.18
79140;HTU21D;68546;59.142;37.948;2023-04-29T09:16:12;13.09;64.72
79140;HTU21D;68546;59.142;37.948;2023-04-29T09:18:47;13.20;64.58
79140;HTU21D;68546;59.142;37.948;2023-04-29T09:21:18;13.32;64.12
79140;HTU21D;68546;59.142;37.948;2023-04-29T09:23:47;13.40;63.89
79140;HTU21D;68546;59.142;37.948;2023-04-29T09:26:17;13.52;63.63
79140;HTU21D;68546;59.142;37.948;2023-04-29T09:28:43;13.61;63.27
79140;HTU21D;68546;59.142;37.948;2023-04-29T09:31:11;13.69;62.28
79140;HTU21D;68546;59.142;37.948;2023-04-29T09:33:55;13.74;62.23
79140;HTU21D;68546;59.142;37.948;2023-04-29T09:36:49;13.77;61.72
79140;HTU21D;68546;59.142;37.948;2023-04-29T09:39:18;13.80;61.20
79140;HTU21D;68546;59.142;37.948;2023-04-29T09:44:20;13.92;60.45
79140;HTU21D;68546;59.142;37.948;2023-04-29T09:47:16;13.99;60.72
79140;HTU21D;68546;59.142;37.948;2023-04-29T09:49:43;14.05;59.92
79140;HTU21D;68546;59.142;37.948;2023-04-29T09:52:11;14.08;59.24
79140;HTU21D;68546;59.142;37.948;2023-04-29T09:54:40;14.09;58.67
79140;HTU21D;68546;59.142;37.948;2023-04-29T09:57:08;14.05;58.32
79140;HTU21D;68546;59.142;37.948;2023-04-29T09:59:37;14.03;57.68
79140;HTU21D;68546;59.142;37.948;2023-04-29T10:02:13;13.97;57.27
79140;HTU21D;68546;59.142;37.948;2023-04-29T10:04:53;13.91;56.90
79140;HTU21D;68546;59.142;37.948;2023-04-29T10:07:22;13.83;56.53
79140;HTU21D;68546;59.142;37.948;2023-04-29T10:09:50;13.78;56.19
79140;HTU21D;68546;59.142;37.948;2023-04-29T10:12:18;13.75;56.16
79140;HTU21D;68546;59.142;37.948;2023-04-29T10:20:05;13.77;55.61
79140;HTU21D;68546;59.142;37.948;2023-04-29T10:22:47;13.77;54.78
79140;HTU21D;68546;59.142;37.948;2023-04-29T10:25:21;13.77;54.48
79140;HTU21D;68546;59.142;37.948;2023-04-29T10:27:49;13.78;54.55
79140;HTU21D;68546;59.142;37.948;2023-04-29T10:30:20;13.81;54.31
79140;HTU21D;68546;59.142;37.948;2023-04-29T10:32:49;13.84;54.19
79140;HTU21D;68546;59.142;37.948;2023-04-29T10:35:19;13.85;53.79
79140;HTU21D;68546;59.142;37.948;2023-04-29T10:37:46;13.88;53.77
79140;HTU21D;68546;59.142;37.948;2023-04-29T10:42:53;13.85;52.96
79140;HTU21D;68546;59.142;37.948;2023-04-29T10:45:25;13.84;52.71
79140;HTU21D;68546;59.142;37.948;2023-04-29T10:50:39;13.85;52.72
79140;HTU21D;68546;59.142;37.948;2023-04-29T10:53:08;13.84;52.27
79140;HTU21D;68546;59.142;37.948;2023-04-29T10:55:38;13.85;52.37
79140;HTU21D;68546;59.142;37.948;2023-04-29T10:58:08;13.88;52.27
79140;HTU21D;68546;59.142;37.948;2023-04-29T11:00:52;13.93;52.62
79140;HTU21D;68546;59.142;37.948;2023-04-29T11:14:36;14.32;50.84
79140;HTU21D;68546;59.142;37.948;2023-04-29T11:17:13;14.34;50.57
79140;HTU21D;68546;59.142;37.948;2023-04-29T11:19:45;14.37;49.63
79140;HTU21D;68546;59.142;37.948;2023-04-29T11:25:04;14.42;49.35
79140;HTU21D;68546;59.142;37.948;2023-04-29T11:27:34;14.49;49.65
79140;HTU21D;68546;59.142;37.948;2023-04-29T11:30:04;14.59;49.79
79140;HTU21D;68546;59.142;37.948;2023-04-29T11:32:34;14.71;50.26
79140;HTU21D;68546;59.142;37.948;2023-04-29T11:35:15;14.86;50.13
79140;HTU21D;68546;59.142;37.948;2023-04-29T11:37:44;14.97;49.89
79140;HTU21D;68546;59.142;37.948;2023-04-29T11:40:11;15.07;49.24
79140;HTU21D;68546;59.142;37.948;2023-04-29T11:42:44;15.17;48.98
79140;HTU21D;68546;59.142;37.948;2023-04-29T11:45:11;15.27;49.08
79140;HTU21D;68546;59.142;37.948;2023-04-29T11:47:42;15.40;48.71
79140;HTU21D;68546;59.142;37.948;2023-04-29T11:50:10;15.48;48.44
79140;HTU21D;68546;59.142;37.948;2023-04-29T11:52:38;15.54;48.14
79140;HTU21D;68546;59.142;37.948;2023-04-29T11:55:10;15.63;48.05
79140;HTU21D;68546;59.142;37.948;2023-04-29T11:57:39;15.70;48.09
79140;HTU21D;68546;59.142;37.948;2023-04-29T12:00:12;15.78;48.22
79140;HTU21D;68546;59.142;37.948;2023-04-29T12:02:43;15.82;48.14
79140;HTU21D;68546;59.142;37.948;2023-04-29T12:05:11;15.87;48.05
79140;HTU21D;68546;59.142;37.948;2023-04-29T12:07:38;15.89;47.92
79140;HTU21D;68546;59.142;37.948;2023-04-29T12:10:10;15.92;47.75
79140;HTU21D;68546;59.142;37.948;2023-04-29T12:12:38;15.93;47.49
79140;HTU21D;68546;59.142;37.948;2023-04-29T12:15:08;15.90;47.20
79140;HTU21D;68546;59.142;37.948;2023-04-29T12:17:35;15.85;47.11
79140;HTU21D;68546;59.142;37.948;2023-04-29T12:20:02;15.78;47.03
79140;HTU21D;68546;59.142;37.948;2023-04-29T12:22:32;15.74;46.87
79140;HTU21D;68546;59.142;37.948;2023-04-29T12:24:59;15.69;46.96
79140;HTU21D;68546;59.142;37.948;2023-04-29T12:27:28;15.66;47.03
79140;HTU21D;68546;59.142;37.948;2023-04-29T12:29:56;15.67;47.07
79140;HTU21D;68546;59.142;37.948;2023-04-29T12:32:23;15.71;47.08
79140;HTU21D;68546;59.142;37.948;2023-04-29T12:34:51;15.75;47.05
79140;HTU21D;68546;59.142;37.948;2023-04-29T12:37:17;15.80;46.78
79140;HTU21D;68546;59.142;37.948;2023-04-29T12:39:44;15.80;46.56
79140;HTU21D;68546;59.142;37.948;2023-04-29T12:42:14;15.80;46.31
79140;HTU21D;68546;59.142;37.948;2023-04-29T12:44:44;15.76;46.27
79140;HTU21D;68546;59.142;37.948;2023-04-29T12:47:13;15.76;46.31
79140;HTU21D;68546;59.142;37.948;2023-04-29T12:49:43;15.77;46.34
79140;HTU21D;68546;59.142;37.948;2023-04-29T12:52:10;15.78;46.51
79140;HTU21D;68546;59.142;37.948;2023-04-29T12:54:38;15.84;46.57
79140;HTU21D;68546;59.142;37.948;2023-04-29T12:57:09;15.87;46.64
79140;HTU21D;68546;59.142;37.948;2023-04-29T12:59:36;15.91;46.75
79140;HTU21D;68546;59.142;37.948;2023-04-29T13:02:03;15.98;46.73
79140;HTU21D;68546;59.142;37.948;2023-04-29T13:04:29;16.05;46.69
79140;HTU21D;68546;59.142;37.948;2023-04-29T13:06:56;16.06;46.47
79140;HTU21D;68546;59.142;37.948;2023-04-29T13:09:26;16.05;45.88
79140;HTU21D;68546;59.142;37.948;2023-04-29T13:11:53;15.99;45.83
79140;HTU21D;68546;59.142;37.948;2023-04-29T13:14:20;15.91;45.93
79140;HTU21D;68546;59.142;37.948;2023-04-29T13:16:47;15.83;45.98
79140;HTU21D;68546;59.142;37.948;2023-04-29T13:19:13;15.74;46.11
79140;HTU21D;68546;59.142;37.948;2023-04-29T13:21:40;15.69;46.22
79140;HTU21D;68546;59.142;37.948;2023-04-29T13:24:06;15.65;46.27
79140;HTU21D;68546;59.142;37.948;2023-04-29T13:26:33;15.57;46.11
79140;HTU21D;68546;59.142;37.948;2023-04-29T13:28:59;15.48;46.19
79140;HTU21D;68546;59.142;37.948;2023-04-29T13:31:25;15.40;46.38
79140;HTU21D;68546;59.142;37.948;2023-04-29T13:33:53;15.37;46.44
79140;HTU21D;68546;59.142;37.948;2023-04-29T13:36:20;15.31;46.57
79140;HTU21D;68546;59.142;37.948;2023-04-29T13:38:46;15.29;46.58
79140;HTU21D;68546;59.142;37.948;2023-04-29T13:41:13;15.26;46.67
79140;HTU21D;68546;59.142;37.948;2023-04-29T13:43:40;15.23;46.68
79140;HTU21D;68546;59.142;37.948;2023-04-29T13:46:06;15.21;46.60
79140;HTU21D;68546;59.142;37.948;2023-04-29T13:48:34;15.17;46.60
79140;HTU21D;68546;59.142;37.948;2023-04-29T13:51:00;15.13;46.57
79140;HTU21D;68546;59.142;37.948;2023-04-29T13:53:26;15.13;46.55
79140;HTU21D;68546;59.142;37.948;2023-04-29T13:55:53;15.12;46.52
79140;HTU21D;68546;59.142;37.948;2023-04-29T13:58:19;15.14;46.73
79140;HTU21D;68546;59.142;37.948;2023-04-29T14:00:45;15.21;46.73
79140;HTU21D;68546;59.142;37.948;2023-04-29T14:03:12;15.26;46.73
79140;HTU21D;68546;59.142;37.948;2023-04-29T14:05:40;15.29;46.69
79140;HTU21D;68546;59.142;37.948;2023-04-29T14:08:06;15.32;46.49
79140;HTU21D;68546;59.142;37.948;2023-04-29T14:10:32;15.34;46.56
79140;HTU21D;68546;59.142;37.948;2023-04-29T14:12:59;15.37;46.46
79140;HTU21D;68546;59.142;37.948;2023-04-29T14:15:26;15.36;46.19
79140;HTU21D;68546;59.142;37.948;2023-04-29T14:17:53;15.34;46.15
79140;HTU21D;68546;59.142;37.948;2023-04-29T14:20:20;15.27;46.11
79140;HTU21D;68546;59.142;37.948;2023-04-29T14:22:46;15.23;46.05
79140;HTU21D;68546;59.142;37.948;2023-04-29T14:25:12;15.16;46.02
79140;HTU21D;68546;59.142;37.948;2023-04-29T14:27:39;15.12;45.99
79140;HTU21D;68546;59.142;37.948;2023-04-29T14:30:05;15.06;46.05
79140;HTU21D;68546;59.142;37.948;2023-04-29T14:32:32;15.00;46.08
79140;HTU21D;68546;59.142;37.948;2023-04-29T14:34:58;14.96;46.28
79140;HTU21D;68546;59.142;37.948;2023-04-29T14:37:24;14.93;46.30
79140;HTU21D;68546;59.142;37.948;2023-04-29T14:39:51;14.89;46.26
79140;HTU21D;68546;59.142;37.948;2023-04-29T14:42:18;14.88;46.27
79140;HTU21D;68546;59.142;37.948;2023-04-29T14:44:44;14.84;46.13
79140;HTU21D;68546;59.142;37.948;2023-04-29T14:47:10;14.81;46.21
79140;HTU21D;68546;59.142;37.948;2023-04-29T14:49:37;14.78;46.26
79140;HTU21D;68546;59.142;37.948;2023-04-29T14:52:03;14.75;46.25
79140;HTU21D;68546;59.142;37.948;2023-04-29T14:54:30;14.71;46.30
79140;HTU21D;68546;59.142;37.948;2023-04-29T14:56:56;14.68;46.31
79140;HTU21D;68546;59.142;37.948;2023-04-29T14:59:22;14.66;46.28
79140;HTU21D;68546;59.142;37.948;2023-04-29T15:01:48;14.64;46.25
79140;HTU21D;68546;59.142;37.948;2023-04-29T15:04:15;14.63;46.29
79140;HTU21D;68546;59.142;37.948;2023-04-29T15:06:41;14.59;45.99
79140;HTU21D;68546;59.142;37.948;2023-04-29T15:09:08;14.54;45.84
79140;HTU21D;68546;59.142;37.948;2023-04-29T15:11:35;14.47;45.68
79140;HTU21D;68546;59.142;37.948;2023-04-29T15:14:01;14.40;45.67
79140;HTU21D;68546;59.142;37.948;2023-04-29T15:16:28;14.30;45.74
79140;HTU21D;68546;59.142;37.948;2023-04-29T15:18:55;14.24;45.97
79140;HTU21D;68546;59.142;37.948;2023-04-29T15:21:21;14.20;46.05
79140;HTU21D;68546;59.142;37.948;2023-04-29T15:23:47;14.15;46.23
79140;HTU21D;68546;59.142;37.948;2023-04-29T15:26:14;14.14;46.41
79140;HTU21D;68546;59.142;37.948;2023-04-29T15:28:40;14.15;46.56
79140;HTU21D;68546;59.142;37.948;2023-04-29T15:31:08;14.18;46.75
79140;HTU21D;68546;59.142;37.948;2023-04-29T15:33:34;14.20;46.67
79140;HTU21D;68546;59.142;37.948;2023-04-29T15:36:01;14.22;46.72
79140;HTU21D;68546;59.142;37.948;2023-04-29T15:38:28;14.21;46.73
79140;HTU21D;68546;59.142;37.948;2023-04-29T15:40:54;14.20;46.65
79140;HTU21D;68546;59.142;37.948;2023-04-29T15:43:29;14.19;46.58
79140;HTU21D;68546;59.142;37.948;2023-04-29T15:45:58;14.18;46.58
79140;HTU21D;68546;59.142;37.948;2023-04-29T15:48:24;14.18;46.61
79140;HTU21D;68546;59.142;37.948;2023-04-29T15:50:51;14.13;46.71
79140;HTU21D;68546;59.142;37.948;2023-04-29T15:53:18;14.10;46.64
79140;HTU21D;68546;59.142;37.948;2023-04-29T15:55:44;14.07;46.57
79140;HTU21D;68546;59.142;37.948;2023-04-29T15:58:11;14.03;46.42